sensor_id;sensor_type;location;lat;lon;timestamp;P1;durP1;ratioP1;P2;durP2;ratioP2
25915;SDS011;13719;48.188;11.618;2023-09-18T00:01:06;6.15;;;3.58;;
25915;SDS011;13719;48.188;11.618;2023-09-18T00:03:35;6.13;;;2.97;;
25915;SDS011;13719;48.188;11.618;2023-09-18T00:06:03;4.97;;;3.17;;
25915;SDS011;13719;48.188;11.618;2023-09-18T00:08:31;5.25;;;3.08;;
25915;SDS011;13719;48.188;11.618;2023-09-18T00:11:00;5.95;;;3.15;;
25915;SDS011;13719;48.188;11.618;2023-09-18T00:13:30;4.15;;;2.60;;
25915;SDS011;13719;48.188;11.618;2023-09-18T00:15:58;8.20;;;3.80;;
25915;SDS011;13719;48.188;11.618;2023-09-18T00:18:27;4.50;;;3.08;;
25915;SDS011;13719;48.188;11.618;2023-09-18T00:20:56;8.05;;;2.75;;
25915;SDS011;13719;48.188;11.618;2023-09-18T00:23:24;6.03;;;3.45;;
25915;SDS011;13719;48.188;11.618;2023-09-18T00:25:53;5.65;;;3.58;;
25915;SDS011;13719;48.188;11.618;2023-09-18T00:28:21;4.28;;;2.80;;
25915;SDS011;13719;48.188;11.618;2023-09-18T00:30:51;5.13;;;2.92;;
25915;SDS011;13719;48.188;11.618;2023-09-18T00:33:20;5.47;;;3.10;;
25915;SDS011;13719;48.188;11.618;2023-09-18T00:35:49;5.05;;;3.05;;
25915;SDS011;13719;48.188;11.618;2023-09-18T00:38:17;4.95;;;3.03;;
25915;SDS011;13719;48.188;11.618;2023-09-18T00:40:46;5.32;;;2.88;;
25915;SDS011;13719;48.188;11.618;2023-09-18T00:43:16;6.40;;;2.67;;
25915;SDS011;13719;48.188;11.618;2023-09-18T00:45:45;12.25;;;3.17;;
25915;SDS011;13719;48.188;11.618;2023-09-18T00:48:17;4.53;;;3.30;;
25915;SDS011;13719;48.188;11.618;2023-09-18T00:50:45;4.85;;;2.67;;
25915;SDS011;13719;48.188;11.618;2023-09-18T00:53:14;4.70;;;2.70;;
25915;SDS011;13719;48.188;11.618;2023-09-18T00:55:44;6.95;;;3.17;;
25915;SDS011;13719;48.188;11.618;2023-09-18T00:58:12;5.43;;;3.05;;
25915;SDS011;13719;48.188;11.618;2023-09-18T01:00:41;3.63;;;2.45;;
25915;SDS011;13719;48.188;11.618;2023-09-18T01:03:10;7.03;;;3.13;;
25915;SDS011;13719;48.188;11.618;2023-09-18T01:05:40;5.20;;;2.60;;
25915;SDS011;13719;48.188;11.618;2023-09-18T01:08:08;5.18;;;3.20;;
25915;SDS011;13719;48.188;11.618;2023-09-18T01:10:39;6.70;;;3.58;;
25915;SDS011;13719;48.188;11.618;2023-09-18T01:13:11;4.65;;;3.10;;
25915;SDS011;13719;48.188;11.618;2023-09-18T01:15:43;6.43;;;3.20;;
25915;SDS011;13719;48.188;11.618;2023-09-18T01:18:12;3.80;;;2.78;;
25915;SDS011;13719;48.188;11.618;2023-09-18T01:20:44;9.55;;;2.45;;
25915;SDS011;13719;48.188;11.618;2023-09-18T01:23:14;5.00;;;2.97;;
25915;SDS011;13719;48.188;11.618;2023-09-18T01:25:43;5.30;;;2.78;;
25915;SDS011;13719;48.188;11.618;2023-09-18T01:28:11;7.22;;;3.08;;
25915;SDS011;13719;48.188;11.618;2023-09-18T01:30:40;4.25;;;2.80;;
25915;SDS011;13719;48.188;11.618;2023-09-18T01:33:08;5.13;;;2.67;;
25915;SDS011;13719;48.188;11.618;2023-09-18T01:35:37;4.65;;;2.70;;
25915;SDS011;13719;48.188;11.618;2023-09-18T01:38:05;5.25;;;3.13;;
25915;SDS011;13719;48.188;11.618;2023-09-18T01:40:38;6.85;;;2.85;;
25915;SDS011;13719;48.188;11.618;2023-09-18T01:43:07;6.72;;;2.60;;
25915;SDS011;13719;48.188;11.618;2023-09-18T01:45:35;4.00;;;2.55;;
25915;SDS011;13719;48.188;11.618;2023-09-18T01:48:04;6.68;;;2.72;;
25915;SDS011;13719;48.188;11.618;2023-09-18T01:50:33;4.50;;;2.70;;
25915;SDS011;13719;48.188;11.618;2023-09-18T01:53:02;3.58;;;2.58;;
25915;SDS011;13719;48.188;11.618;2023-09-18T01:55:30;6.50;;;2.55;;
25915;SDS011;13719;48.188;11.618;2023-09-18T01:58:00;6.35;;;2.67;;
25915;SDS011;13719;48.188;11.618;2023-09-18T02:00:29;3.97;;;2.38;;
25915;SDS011;13719;48.188;11.618;2023-09-18T02:02:58;7.43;;;2.70;;
25915;SDS011;13719;48.188;11.618;2023-09-18T02:05:46;5.63;;;2.67;;
25915;SDS011;13719;48.188;11.618;2023-09-18T02:08:15;6.45;;;3.33;;
25915;SDS011;13719;48.188;11.618;2023-09-18T02:10:44;3.70;;;2.42;;
25915;SDS011;13719;48.188;11.618;2023-09-18T02:13:13;5.38;;;2.58;;
25915;SDS011;13719;48.188;11.618;2023-09-18T02:15:44;6.40;;;2.55;;
25915;SDS011;13719;48.188;11.618;2023-09-18T02:18:12;6.00;;;3.17;;
25915;SDS011;13719;48.188;11.618;2023-09-18T02:20:42;4.60;;;2.70;;
25915;SDS011;13719;48.188;11.618;2023-09-18T02:23:14;3.80;;;2.60;;
25915;SDS011;13719;48.188;11.618;2023-09-18T02:25:42;5.72;;;2.40;;
25915;SDS011;13719;48.188;11.618;2023-09-18T02:28:10;4.70;;;2.85;;
25915;SDS011;13719;48.188;11.618;2023-09-18T02:30:40;4.28;;;2.75;;
25915;SDS011;13719;48.188;11.618;2023-09-18T02:33:09;5.45;;;3.00;;
25915;SDS011;13719;48.188;11.618;2023-09-18T02:35:37;3.67;;;2.53;;
25915;SDS011;13719;48.188;11.618;2023-09-18T02:38:06;3.97;;;2.60;;
25915;SDS011;13719;48.188;11.618;2023-09-18T02:40:34;6.68;;;3.17;;
25915;SDS011;13719;48.188;11.618;2023-09-18T02:43:02;4.95;;;2.72;;
25915;SDS011;13719;48.188;11.618;2023-09-18T02:45:31;3.00;;;2.55;;
25915;SDS011;13719;48.188;11.618;2023-09-18T02:48:01;5.53;;;2.60;;
25915;SDS011;13719;48.188;11.618;2023-09-18T02:50:29;3.83;;;2.20;;
25915;SDS011;13719;48.188;11.618;2023-09-18T02:52:58;4.07;;;2.22;;
25915;SDS011;13719;48.188;11.618;2023-09-18T02:55:26;7.07;;;2.10;;
25915;SDS011;13719;48.188;11.618;2023-09-18T02:57:54;4.47;;;2.10;;
25915;SDS011;13719;48.188;11.618;2023-09-18T03:00:23;7.78;;;2.50;;
25915;SDS011;13719;48.188;11.618;2023-09-18T03:03:10;7.28;;;2.50;;
25915;SDS011;13719;48.188;11.618;2023-09-18T03:05:39;3.88;;;2.47;;
25915;SDS011;13719;48.188;11.618;2023-09-18T03:08:08;3.35;;;2.22;;
25915;SDS011;13719;48.188;11.618;2023-09-18T03:10:37;6.05;;;2.22;;
25915;SDS011;13719;48.188;11.618;2023-09-18T03:13:06;4.32;;;2.25;;
25915;SDS011;13719;48.188;11.618;2023-09-18T03:15:34;4.28;;;2.40;;
25915;SDS011;13719;48.188;11.618;2023-09-18T03:18:03;3.75;;;2.35;;
25915;SDS011;13719;48.188;11.618;2023-09-18T03:20:34;4.70;;;2.35;;
25915;SDS011;13719;48.188;11.618;2023-09-18T03:23:03;4.93;;;2.20;;
25915;SDS011;13719;48.188;11.618;2023-09-18T03:25:31;2.53;;;1.90;;
25915;SDS011;13719;48.188;11.618;2023-09-18T03:30:45;5.50;;;2.63;;
25915;SDS011;13719;48.188;11.618;2023-09-18T03:33:13;3.92;;;2.40;;
25915;SDS011;13719;48.188;11.618;2023-09-18T03:35:46;4.07;;;2.40;;
25915;SDS011;13719;48.188;11.618;2023-09-18T03:38:16;3.55;;;1.85;;
25915;SDS011;13719;48.188;11.618;2023-09-18T03:40:44;4.90;;;2.22;;
25915;SDS011;13719;48.188;11.618;2023-09-18T03:43:13;2.88;;;2.13;;
25915;SDS011;13719;48.188;11.618;2023-09-18T03:45:41;10.52;;;2.55;;
25915;SDS011;13719;48.188;11.618;2023-09-18T03:48:10;4.22;;;2.20;;
25915;SDS011;13719;48.188;11.618;2023-09-18T03:50:38;4.13;;;2.38;;
25915;SDS011;13719;48.188;11.618;2023-09-18T03:53:09;3.40;;;2.30;;
25915;SDS011;13719;48.188;11.618;2023-09-18T03:55:38;5.38;;;2.40;;
25915;SDS011;13719;48.188;11.618;2023-09-18T03:58:06;5.00;;;2.20;;
25915;SDS011;13719;48.188;11.618;2023-09-18T04:00:35;5.60;;;2.70;;
25915;SDS011;13719;48.188;11.618;2023-09-18T04:03:03;5.57;;;2.22;;
25915;SDS011;13719;48.188;11.618;2023-09-18T04:05:32;5.78;;;2.58;;
25915;SDS011;13719;48.188;11.618;2023-09-18T04:08:00;4.47;;;1.90;;
25915;SDS011;13719;48.188;11.618;2023-09-18T04:10:30;2.88;;;2.25;;
25915;SDS011;13719;48.188;11.618;2023-09-18T04:12:59;6.90;;;2.30;;
25915;SDS011;13719;48.188;11.618;2023-09-18T04:15:28;7.18;;;2.28;;
25915;SDS011;13719;48.188;11.618;2023-09-18T04:17:56;4.18;;;1.90;;
25915;SDS011;13719;48.188;11.618;2023-09-18T04:20:25;3.45;;;2.28;;
25915;SDS011;13719;48.188;11.618;2023-09-18T04:25:38;4.60;;;2.20;;
25915;SDS011;13719;48.188;11.618;2023-09-18T04:28:06;4.50;;;2.20;;
25915;SDS011;13719;48.188;11.618;2023-09-18T04:30:35;3.67;;;2.03;;
25915;SDS011;13719;48.188;11.618;2023-09-18T04:33:03;3.38;;;2.33;;
25915;SDS011;13719;48.188;11.618;2023-09-18T04:35:32;4.80;;;2.20;;
25915;SDS011;13719;48.188;11.618;2023-09-18T04:38:01;3.35;;;2.10;;
25915;SDS011;13719;48.188;11.618;2023-09-18T04:40:29;3.67;;;2.05;;
25915;SDS011;13719;48.188;11.618;2023-09-18T04:43:00;5.97;;;2.60;;
25915;SDS011;13719;48.188;11.618;2023-09-18T04:45:30;4.82;;;2.28;;
25915;SDS011;13719;48.188;11.618;2023-09-18T04:47:59;5.22;;;2.33;;
25915;SDS011;13719;48.188;11.618;2023-09-18T04:50:27;6.18;;;2.45;;
25915;SDS011;13719;48.188;11.618;2023-09-18T04:52:56;4.40;;;2.53;;
25915;SDS011;13719;48.188;11.618;2023-09-18T04:55:24;4.85;;;2.38;;
25915;SDS011;13719;48.188;11.618;2023-09-18T04:57:52;5.72;;;2.42;;
25915;SDS011;13719;48.188;11.618;2023-09-18T05:00:22;5.03;;;2.20;;
25915;SDS011;13719;48.188;11.618;2023-09-18T05:02:52;5.80;;;3.08;;
25915;SDS011;13719;48.188;11.618;2023-09-18T05:05:21;5.47;;;2.55;;
25915;SDS011;13719;48.188;11.618;2023-09-18T05:07:50;3.38;;;2.05;;
25915;SDS011;13719;48.188;11.618;2023-09-18T05:10:18;4.60;;;2.70;;
25915;SDS011;13719;48.188;11.618;2023-09-18T05:12:48;4.85;;;2.17;;
25915;SDS011;13719;48.188;11.618;2023-09-18T05:15:26;7.40;;;2.15;;
25915;SDS011;13719;48.188;11.618;2023-09-18T05:17:56;4.30;;;2.08;;
25915;SDS011;13719;48.188;11.618;2023-09-18T05:20:25;5.80;;;2.15;;
25915;SDS011;13719;48.188;11.618;2023-09-18T05:22:55;3.88;;;2.30;;
25915;SDS011;13719;48.188;11.618;2023-09-18T05:25:24;7.13;;;2.50;;
25915;SDS011;13719;48.188;11.618;2023-09-18T05:27:56;9.55;;;2.47;;
25915;SDS011;13719;48.188;11.618;2023-09-18T05:30:27;4.95;;;2.30;;
25915;SDS011;13719;48.188;11.618;2023-09-18T05:32:57;6.22;;;2.40;;
25915;SDS011;13719;48.188;11.618;2023-09-18T05:35:31;6.50;;;3.03;;
25915;SDS011;13719;48.188;11.618;2023-09-18T05:37:59;5.55;;;2.47;;
25915;SDS011;13719;48.188;11.618;2023-09-18T05:40:28;4.80;;;2.10;;
25915;SDS011;13719;48.188;11.618;2023-09-18T05:42:56;5.38;;;2.38;;
25915;SDS011;13719;48.188;11.618;2023-09-18T05:45:25;5.82;;;2.38;;
25915;SDS011;13719;48.188;11.618;2023-09-18T05:47:55;5.00;;;2.53;;
25915;SDS011;13719;48.188;11.618;2023-09-18T05:50:30;4.22;;;2.42;;
25915;SDS011;13719;48.188;11.618;2023-09-18T05:52:59;6.78;;;2.58;;
25915;SDS011;13719;48.188;11.618;2023-09-18T05:55:31;6.07;;;2.40;;
25915;SDS011;13719;48.188;11.618;2023-09-18T05:57:59;3.63;;;2.20;;
25915;SDS011;13719;48.188;11.618;2023-09-18T06:00:30;6.75;;;2.42;;
25915;SDS011;13719;48.188;11.618;2023-09-18T06:03:00;4.38;;;2.40;;
25915;SDS011;13719;48.188;11.618;2023-09-18T06:05:28;4.57;;;2.60;;
25915;SDS011;13719;48.188;11.618;2023-09-18T06:08:00;8.00;;;2.53;;
25915;SDS011;13719;48.188;11.618;2023-09-18T06:10:28;4.57;;;2.47;;
25915;SDS011;13719;48.188;11.618;2023-09-18T06:12:57;4.68;;;2.53;;
25915;SDS011;13719;48.188;11.618;2023-09-18T06:15:30;8.13;;;2.45;;
25915;SDS011;13719;48.188;11.618;2023-09-18T06:18:00;5.60;;;2.53;;
25915;SDS011;13719;48.188;11.618;2023-09-18T06:20:30;3.80;;;2.30;;
25915;SDS011;13719;48.188;11.618;2023-09-18T06:22:58;4.45;;;2.40;;
25915;SDS011;13719;48.188;11.618;2023-09-18T06:25:26;6.10;;;2.90;;
25915;SDS011;13719;48.188;11.618;2023-09-18T06:27:55;8.18;;;2.75;;
25915;SDS011;13719;48.188;11.618;2023-09-18T06:30:23;5.57;;;2.47;;
25915;SDS011;13719;48.188;11.618;2023-09-18T06:32:52;6.53;;;2.45;;
25915;SDS011;13719;48.188;11.618;2023-09-18T06:35:22;5.18;;;2.45;;
25915;SDS011;13719;48.188;11.618;2023-09-18T06:37:50;6.78;;;2.65;;
25915;SDS011;13719;48.188;11.618;2023-09-18T06:40:20;6.00;;;2.30;;
25915;SDS011;13719;48.188;11.618;2023-09-18T06:42:49;5.60;;;2.63;;
25915;SDS011;13719;48.188;11.618;2023-09-18T06:45:18;8.35;;;3.30;;
25915;SDS011;13719;48.188;11.618;2023-09-18T06:47:46;8.57;;;3.35;;
25915;SDS011;13719;48.188;11.618;2023-09-18T06:50:16;8.77;;;2.78;;
25915;SDS011;13719;48.188;11.618;2023-09-18T06:52:46;4.15;;;2.53;;
25915;SDS011;13719;48.188;11.618;2023-09-18T06:55:16;4.85;;;2.95;;
25915;SDS011;13719;48.188;11.618;2023-09-18T06:57:44;5.53;;;2.63;;
25915;SDS011;13719;48.188;11.618;2023-09-18T07:00:14;4.60;;;2.53;;
25915;SDS011;13719;48.188;11.618;2023-09-18T07:02:44;7.22;;;2.95;;
25915;SDS011;13719;48.188;11.618;2023-09-18T07:05:13;6.53;;;3.10;;
25915;SDS011;13719;48.188;11.618;2023-09-18T07:07:42;9.65;;;3.20;;
25915;SDS011;13719;48.188;11.618;2023-09-18T07:10:11;6.57;;;3.38;;
25915;SDS011;13719;48.188;11.618;2023-09-18T07:12:40;10.18;;;4.03;;
25915;SDS011;13719;48.188;11.618;2023-09-18T07:15:09;11.75;;;3.80;;
25915;SDS011;13719;48.188;11.618;2023-09-18T07:17:37;9.95;;;3.53;;
25915;SDS011;13719;48.188;11.618;2023-09-18T07:20:06;8.48;;;3.05;;
25915;SDS011;13719;48.188;11.618;2023-09-18T07:22:45;8.65;;;3.80;;
25915;SDS011;13719;48.188;11.618;2023-09-18T07:25:15;9.23;;;3.25;;
25915;SDS011;13719;48.188;11.618;2023-09-18T07:27:44;6.72;;;3.35;;
25915;SDS011;13719;48.188;11.618;2023-09-18T07:30:13;5.47;;;3.45;;
25915;SDS011;13719;48.188;11.618;2023-09-18T07:32:42;6.88;;;3.20;;
25915;SDS011;13719;48.188;11.618;2023-09-18T07:35:11;5.32;;;3.28;;
25915;SDS011;13719;48.188;11.618;2023-09-18T07:37:41;5.63;;;3.08;;
25915;SDS011;13719;48.188;11.618;2023-09-18T07:40:12;4.47;;;2.80;;
25915;SDS011;13719;48.188;11.618;2023-09-18T07:42:43;7.55;;;3.08;;
25915;SDS011;13719;48.188;11.618;2023-09-18T07:45:12;4.75;;;3.13;;
25915;SDS011;13719;48.188;11.618;2023-09-18T07:47:40;7.38;;;3.22;;
25915;SDS011;13719;48.188;11.618;2023-09-18T07:50:09;7.13;;;3.33;;
25915;SDS011;13719;48.188;11.618;2023-09-18T07:52:38;6.85;;;3.28;;
25915;SDS011;13719;48.188;11.618;2023-09-18T07:55:07;7.00;;;3.75;;
25915;SDS011;13719;48.188;11.618;2023-09-18T07:57:36;8.07;;;3.05;;
25915;SDS011;13719;48.188;11.618;2023-09-18T08:00:06;6.55;;;3.03;;
25915;SDS011;13719;48.188;11.618;2023-09-18T08:02:39;8.48;;;3.53;;
25915;SDS011;13719;48.188;11.618;2023-09-18T08:05:09;6.82;;;3.40;;
25915;SDS011;13719;48.188;11.618;2023-09-18T08:07:37;7.22;;;3.17;;
25915;SDS011;13719;48.188;11.618;2023-09-18T08:10:07;8.73;;;3.35;;
25915;SDS011;13719;48.188;11.618;2023-09-18T08:12:36;7.45;;;2.92;;
25915;SDS011;13719;48.188;11.618;2023-09-18T08:15:06;5.88;;;3.13;;
25915;SDS011;13719;48.188;11.618;2023-09-18T08:17:35;4.95;;;3.10;;
25915;SDS011;13719;48.188;11.618;2023-09-18T08:20:05;5.28;;;3.13;;
25915;SDS011;13719;48.188;11.618;2023-09-18T08:22:39;5.00;;;3.10;;
25915;SDS011;13719;48.188;11.618;2023-09-18T08:25:08;7.35;;;3.70;;
25915;SDS011;13719;48.188;11.618;2023-09-18T08:27:37;5.03;;;2.92;;
25915;SDS011;13719;48.188;11.618;2023-09-18T08:30:10;4.38;;;2.83;;
25915;SDS011;13719;48.188;11.618;2023-09-18T08:32:39;9.82;;;3.42;;
25915;SDS011;13719;48.188;11.618;2023-09-18T08:35:08;5.70;;;3.25;;
25915;SDS011;13719;48.188;11.618;2023-09-18T08:37:39;5.70;;;3.33;;
25915;SDS011;13719;48.188;11.618;2023-09-18T08:40:09;5.07;;;3.10;;
25915;SDS011;13719;48.188;11.618;2023-09-18T08:42:40;6.07;;;3.20;;
25915;SDS011;13719;48.188;11.618;2023-09-18T08:45:14;7.82;;;3.58;;
25915;SDS011;13719;48.188;11.618;2023-09-18T08:47:43;8.15;;;2.95;;
25915;SDS011;13719;48.188;11.618;2023-09-18T08:50:12;6.53;;;3.78;;
25915;SDS011;13719;48.188;11.618;2023-09-18T08:52:41;11.27;;;3.42;;
25915;SDS011;13719;48.188;11.618;2023-09-18T08:55:09;6.13;;;3.17;;
25915;SDS011;13719;48.188;11.618;2023-09-18T08:57:39;6.50;;;3.10;;
25915;SDS011;13719;48.188;11.618;2023-09-18T09:00:10;6.28;;;2.90;;
25915;SDS011;13719;48.188;11.618;2023-09-18T09:02:44;7.22;;;3.08;;
25915;SDS011;13719;48.188;11.618;2023-09-18T09:05:15;4.60;;;2.97;;
25915;SDS011;13719;48.188;11.618;2023-09-18T09:07:44;7.05;;;3.60;;
25915;SDS011;13719;48.188;11.618;2023-09-18T09:10:12;6.53;;;3.25;;
25915;SDS011;13719;48.188;11.618;2023-09-18T09:12:51;4.90;;;3.38;;
25915;SDS011;13719;48.188;11.618;2023-09-18T09:15:21;10.02;;;3.60;;
25915;SDS011;13719;48.188;11.618;2023-09-18T09:17:55;6.35;;;3.03;;
25915;SDS011;13719;48.188;11.618;2023-09-18T09:20:29;7.57;;;3.60;;
25915;SDS011;13719;48.188;11.618;2023-09-18T09:23:00;7.78;;;3.45;;
25915;SDS011;13719;48.188;11.618;2023-09-18T09:25:29;7.78;;;3.97;;
25915;SDS011;13719;48.188;11.618;2023-09-18T09:27:59;6.25;;;3.63;;
25915;SDS011;13719;48.188;11.618;2023-09-18T09:30:30;5.60;;;3.30;;
25915;SDS011;13719;48.188;11.618;2023-09-18T09:33:00;13.18;;;3.78;;
25915;SDS011;13719;48.188;11.618;2023-09-18T09:35:30;5.22;;;3.30;;
25915;SDS011;13719;48.188;11.618;2023-09-18T09:38:01;5.80;;;3.17;;
25915;SDS011;13719;48.188;11.618;2023-09-18T09:40:30;6.40;;;3.30;;
25915;SDS011;13719;48.188;11.618;2023-09-18T09:42:59;7.20;;;3.10;;
25915;SDS011;13719;48.188;11.618;2023-09-18T09:45:28;5.05;;;3.17;;
25915;SDS011;13719;48.188;11.618;2023-09-18T09:47:57;11.10;;;2.95;;
25915;SDS011;13719;48.188;11.618;2023-09-18T09:50:27;4.82;;;2.88;;
25915;SDS011;13719;48.188;11.618;2023-09-18T09:52:55;12.82;;;3.53;;
25915;SDS011;13719;48.188;11.618;2023-09-18T09:55:25;9.95;;;2.90;;
25915;SDS011;13719;48.188;11.618;2023-09-18T09:57:55;6.75;;;2.95;;
25915;SDS011;13719;48.188;11.618;2023-09-18T10:00:26;7.63;;;2.80;;
25915;SDS011;13719;48.188;11.618;2023-09-18T10:02:59;5.75;;;3.10;;
25915;SDS011;13719;48.188;11.618;2023-09-18T10:05:32;6.50;;;3.00;;
25915;SDS011;13719;48.188;11.618;2023-09-18T10:08:06;5.50;;;2.83;;
25915;SDS011;13719;48.188;11.618;2023-09-18T10:10:35;6.43;;;3.53;;
25915;SDS011;13719;48.188;11.618;2023-09-18T10:13:07;8.68;;;3.25;;
25915;SDS011;13719;48.188;11.618;2023-09-18T10:15:38;7.70;;;3.10;;
25915;SDS011;13719;48.188;11.618;2023-09-18T10:18:17;8.60;;;2.80;;
25915;SDS011;13719;48.188;11.618;2023-09-18T10:20:48;8.88;;;2.88;;
25915;SDS011;13719;48.188;11.618;2023-09-18T10:23:21;5.97;;;3.00;;
25915;SDS011;13719;48.188;11.618;2023-09-18T10:25:53;9.52;;;2.63;;
25915;SDS011;13719;48.188;11.618;2023-09-18T10:28:23;7.90;;;2.42;;
25915;SDS011;13719;48.188;11.618;2023-09-18T10:30:57;13.35;;;2.97;;
25915;SDS011;13719;48.188;11.618;2023-09-18T10:33:26;6.75;;;3.17;;
25915;SDS011;13719;48.188;11.618;2023-09-18T10:35:56;11.75;;;2.72;;
25915;SDS011;13719;48.188;11.618;2023-09-18T10:38:27;3.95;;;2.05;;
25915;SDS011;13719;48.188;11.618;2023-09-18T10:40:56;8.07;;;2.53;;
25915;SDS011;13719;48.188;11.618;2023-09-18T10:43:26;7.78;;;2.33;;
25915;SDS011;13719;48.188;11.618;2023-09-18T10:45:54;6.93;;;2.40;;
25915;SDS011;13719;48.188;11.618;2023-09-18T10:48:23;4.00;;;2.00;;
25915;SDS011;13719;48.188;11.618;2023-09-18T10:50:52;7.13;;;2.20;;
25915;SDS011;13719;48.188;11.618;2023-09-18T10:53:22;10.57;;;1.92;;
25915;SDS011;13719;48.188;11.618;2023-09-18T10:55:53;7.68;;;1.98;;
25915;SDS011;13719;48.188;11.618;2023-09-18T10:58:23;10.20;;;2.28;;
25915;SDS011;13719;48.188;11.618;2023-09-18T11:00:53;8.00;;;2.05;;
25915;SDS011;13719;48.188;11.618;2023-09-18T11:03:24;9.32;;;2.40;;
25915;SDS011;13719;48.188;11.618;2023-09-18T11:06:02;9.80;;;2.35;;
25915;SDS011;13719;48.188;11.618;2023-09-18T11:08:33;9.90;;;1.73;;
25915;SDS011;13719;48.188;11.618;2023-09-18T11:11:02;7.68;;;1.67;;
25915;SDS011;13719;48.188;11.618;2023-09-18T11:13:38;9.68;;;2.53;;
25915;SDS011;13719;48.188;11.618;2023-09-18T11:16:15;6.93;;;1.77;;
25915;SDS011;13719;48.188;11.618;2023-09-18T11:18:48;12.18;;;1.90;;
25915;SDS011;13719;48.188;11.618;2023-09-18T11:21:23;10.68;;;2.40;;
25915;SDS011;13719;48.188;11.618;2023-09-18T11:23:59;7.75;;;1.92;;
25915;SDS011;13719;48.188;11.618;2023-09-18T11:26:29;8.80;;;2.58;;
25915;SDS011;13719;48.188;11.618;2023-09-18T11:29:01;8.40;;;2.13;;
25915;SDS011;13719;48.188;11.618;2023-09-18T11:31:40;6.22;;;2.03;;
25915;SDS011;13719;48.188;11.618;2023-09-18T11:34:11;5.85;;;1.73;;
25915;SDS011;13719;48.188;11.618;2023-09-18T11:36:39;5.47;;;1.80;;
25915;SDS011;13719;48.188;11.618;2023-09-18T11:39:09;9.02;;;1.65;;
25915;SDS011;13719;48.188;11.618;2023-09-18T11:41:38;9.32;;;1.38;;
25915;SDS011;13719;48.188;11.618;2023-09-18T11:46:54;3.25;;;1.40;;
25915;SDS011;13719;48.188;11.618;2023-09-18T11:49:24;7.07;;;1.30;;
25915;SDS011;13719;48.188;11.618;2023-09-18T11:51:53;9.23;;;2.15;;
25915;SDS011;13719;48.188;11.618;2023-09-18T11:54:23;3.65;;;1.58;;
25915;SDS011;13719;48.188;11.618;2023-09-18T11:56:52;3.95;;;0.90;;
25915;SDS011;13719;48.188;11.618;2023-09-18T11:59:32;9.18;;;1.40;;
25915;SDS011;13719;48.188;11.618;2023-09-18T12:02:02;4.25;;;1.23;;
25915;SDS011;13719;48.188;11.618;2023-09-18T12:04:32;3.35;;;1.08;;
25915;SDS011;13719;48.188;11.618;2023-09-18T12:07:01;5.40;;;1.50;;
25915;SDS011;13719;48.188;11.618;2023-09-18T12:09:31;4.28;;;1.52;;
25915;SDS011;13719;48.188;11.618;2023-09-18T12:12:00;3.20;;;1.33;;
25915;SDS011;13719;48.188;11.618;2023-09-18T12:14:31;4.90;;;0.88;;
25915;SDS011;13719;48.188;11.618;2023-09-18T12:17:00;4.05;;;1.10;;
25915;SDS011;13719;48.188;11.618;2023-09-18T12:19:29;5.28;;;1.00;;
25915;SDS011;13719;48.188;11.618;2023-09-18T12:22:00;3.78;;;1.00;;
25915;SDS011;13719;48.188;11.618;2023-09-18T12:24:31;3.78;;;1.40;;
25915;SDS011;13719;48.188;11.618;2023-09-18T12:27:00;3.67;;;0.80;;
25915;SDS011;13719;48.188;11.618;2023-09-18T12:29:28;1.63;;;0.65;;
25915;SDS011;13719;48.188;11.618;2023-09-18T12:32:00;1.58;;;0.80;;
25915;SDS011;13719;48.188;11.618;2023-09-18T12:34:32;2.80;;;1.00;;
25915;SDS011;13719;48.188;11.618;2023-09-18T12:37:01;4.38;;;0.80;;
25915;SDS011;13719;48.188;11.618;2023-09-18T12:39:32;2.00;;;0.70;;
25915;SDS011;13719;48.188;11.618;2023-09-18T12:42:01;3.55;;;1.10;;
25915;SDS011;13719;48.188;11.618;2023-09-18T12:44:30;4.65;;;0.80;;
25915;SDS011;13719;48.188;11.618;2023-09-18T12:46:59;1.98;;;1.48;;
25915;SDS011;13719;48.188;11.618;2023-09-18T12:49:27;2.47;;;1.00;;
25915;SDS011;13719;48.188;11.618;2023-09-18T12:52:00;6.13;;;1.20;;
25915;SDS011;13719;48.188;11.618;2023-09-18T12:54:37;2.70;;;0.93;;
25915;SDS011;13719;48.188;11.618;2023-09-18T12:57:06;2.50;;;1.25;;
25915;SDS011;13719;48.188;11.618;2023-09-18T12:59:35;4.35;;;1.27;;
25915;SDS011;13719;48.188;11.618;2023-09-18T13:02:05;3.08;;;1.00;;
25915;SDS011;13719;48.188;11.618;2023-09-18T13:04:34;2.85;;;0.90;;
25915;SDS011;13719;48.188;11.618;2023-09-18T13:07:08;5.85;;;1.17;;
25915;SDS011;13719;48.188;11.618;2023-09-18T13:09:38;1.90;;;0.95;;
25915;SDS011;13719;48.188;11.618;2023-09-18T13:12:07;4.55;;;0.80;;
25915;SDS011;13719;48.188;11.618;2023-09-18T13:17:23;2.10;;;1.00;;
25915;SDS011;13719;48.188;11.618;2023-09-18T13:19:52;2.95;;;0.80;;
25915;SDS011;13719;48.188;11.618;2023-09-18T13:22:24;2.58;;;0.95;;
25915;SDS011;13719;48.188;11.618;2023-09-18T13:24:56;2.08;;;0.80;;
25915;SDS011;13719;48.188;11.618;2023-09-18T13:27:25;2.10;;;0.93;;
25915;SDS011;13719;48.188;11.618;2023-09-18T13:29:53;1.77;;;0.90;;
25915;SDS011;13719;48.188;11.618;2023-09-18T13:32:23;4.75;;;0.63;;
25915;SDS011;13719;48.188;11.618;2023-09-18T13:34:51;1.58;;;0.80;;
25915;SDS011;13719;48.188;11.618;2023-09-18T13:37:20;4.90;;;0.90;;
25915;SDS011;13719;48.188;11.618;2023-09-18T13:39:48;4.07;;;0.93;;
25915;SDS011;13719;48.188;11.618;2023-09-18T13:42:18;4.28;;;1.05;;
25915;SDS011;13719;48.188;11.618;2023-09-18T13:44:46;3.55;;;1.08;;
25915;SDS011;13719;48.188;11.618;2023-09-18T13:47:16;2.75;;;1.30;;
25915;SDS011;13719;48.188;11.618;2023-09-18T13:49:45;2.95;;;0.90;;
25915;SDS011;13719;48.188;11.618;2023-09-18T13:52:14;3.42;;;0.80;;
25915;SDS011;13719;48.188;11.618;2023-09-18T13:54:42;7.63;;;1.30;;
25915;SDS011;13719;48.188;11.618;2023-09-18T13:57:18;3.97;;;0.70;;
25915;SDS011;13719;48.188;11.618;2023-09-18T13:59:47;4.18;;;0.80;;
25915;SDS011;13719;48.188;11.618;2023-09-18T14:02:16;4.82;;;0.95;;
25915;SDS011;13719;48.188;11.618;2023-09-18T14:04:45;4.95;;;1.08;;
25915;SDS011;13719;48.188;11.618;2023-09-18T14:07:14;3.40;;;0.82;;
25915;SDS011;13719;48.188;11.618;2023-09-18T14:09:42;4.60;;;1.10;;
25915;SDS011;13719;48.188;11.618;2023-09-18T14:12:13;2.55;;;0.93;;
25915;SDS011;13719;48.188;11.618;2023-09-18T14:14:42;1.90;;;0.80;;
25915;SDS011;13719;48.188;11.618;2023-09-18T14:17:11;4.55;;;0.98;;
25915;SDS011;13719;48.188;11.618;2023-09-18T14:19:40;2.97;;;1.00;;
25915;SDS011;13719;48.188;11.618;2023-09-18T14:22:08;4.88;;;0.90;;
25915;SDS011;13719;48.188;11.618;2023-09-18T14:24:36;3.13;;;0.70;;
25915;SDS011;13719;48.188;11.618;2023-09-18T14:27:05;4.65;;;0.82;;
25915;SDS011;13719;48.188;11.618;2023-09-18T14:29:34;3.90;;;1.02;;
25915;SDS011;13719;48.188;11.618;2023-09-18T14:32:05;2.92;;;1.15;;
25915;SDS011;13719;48.188;11.618;2023-09-18T14:34:34;1.38;;;0.90;;
25915;SDS011;13719;48.188;11.618;2023-09-18T14:37:03;2.30;;;0.70;;
25915;SDS011;13719;48.188;11.618;2023-09-18T14:39:31;1.02;;;0.60;;
25915;SDS011;13719;48.188;11.618;2023-09-18T14:41:59;4.25;;;0.88;;
25915;SDS011;13719;48.188;11.618;2023-09-18T14:44:29;2.28;;;1.10;;
25915;SDS011;13719;48.188;11.618;2023-09-18T14:46:57;1.42;;;0.70;;
25915;SDS011;13719;48.188;11.618;2023-09-18T14:49:27;1.55;;;1.00;;
25915;SDS011;13719;48.188;11.618;2023-09-18T14:51:56;3.03;;;0.98;;
25915;SDS011;13719;48.188;11.618;2023-09-18T14:54:24;3.00;;;0.90;;
25915;SDS011;13719;48.188;11.618;2023-09-18T14:56:53;2.63;;;1.27;;
25915;SDS011;13719;48.188;11.618;2023-09-18T14:59:21;3.30;;;0.85;;